Time;durP1;ratioP1;P1;durP2;ratioP2;P2;SDS_P1;SDS_P2;PMS_P1;PMS_P2;Temp;Humidity;BMP_temperature;BMP_pressure;BME280_temperature;BME280_humidity;BME280_pressure;Samples;Min_cycle;Max_cycle;Signal;HPM_P1;HPM_P2
2022/11/23 00:01:25;;;;;;;2.10;1.10;;;3.40;99.90;;;;;;4129425;28;20238;-71
2022/11/23 00:03:25;;;;;;;5.77;1.00;;;3.40;99.90;;;;;;4128400;28;20217;-71
2022/11/23 00:05:28;;;;;;;2.90;1.07;;;3.30;99.90;;;;;;4130794;28;21100;-71
2022/11/23 00:07:29;;;;;;;7.73;2.23;;;3.20;99.90;;;;;;4113150;28;20202;-70
2022/11/23 00:09:29;;;;;;;4.07;0.73;;;3.30;99.90;;;;;;4129244;28;20518;-70
2022/11/23 00:11:34;;;;;;;2.30;0.97;;;3.30;99.90;;;;;;4129034;28;20586;-70
2022/11/23 00:13:35;;;;;;;7.00;1.40;;;3.40;99.90;;;;;;4129678;28;20277;-71
2022/11/23 00:15:35;;;;;;;3.43;1.20;;;3.30;99.90;;;;;;4129385;28;20426;-70
2022/11/23 00:17:36;;;;;;;4.50;1.20;;;3.30;99.90;;;;;;4130313;28;20475;-70
2022/11/23 00:19:37;;;;;;;6.20;1.27;;;3.40;99.90;;;;;;4128966;28;20187;-70
2022/11/23 00:21:37;;;;;;;4.43;1.10;;;3.30;99.90;;;;;;4130211;28;20676;-71
2022/11/23 00:23:38;;;;;;;8.83;1.47;;;3.20;99.90;;;;;;4128349;28;21014;-71
2022/11/23 00:25:39;;;;;;;11.20;2.10;;;3.20;99.90;;;;;;4129019;28;20189;-72
2022/11/23 00:27:39;;;;;;;1.60;1.00;;;3.20;99.90;;;;;;4129041;28;20879;-71
2022/11/23 00:29:40;;;;;;;3.07;1.13;;;3.20;99.90;;;;;;4112877;28;20197;-70
2022/11/23 00:31:41;;;;;;;3.37;1.87;;;3.30;99.90;;;;;;4128617;28;20207;-70
2022/11/23 00:33:42;;;;;;;3.07;1.17;;;3.40;99.90;;;;;;4128247;28;20205;-70
2022/11/23 00:35:43;;;;;;;1.90;1.00;;;3.40;99.90;;;;;;4129033;28;20189;-71
2022/11/23 00:37:44;;;;;;;2.97;1.23;;;3.50;99.90;;;;;;4128879;28;20481;-71
2022/11/23 00:39:44;;;;;;;3.97;1.23;;;3.50;99.90;;;;;;4130365;28;20663;-71
2022/11/23 00:41:45;;;;;;;3.33;1.27;;;3.50;99.90;;;;;;4130100;28;20934;-71
2022/11/23 00:43:46;;;;;;;7.43;1.50;;;3.40;99.90;;;;;;4128055;28;20577;-70
2022/11/23 00:45:49;;;;;;;2.80;1.03;;;3.40;99.90;;;;;;4128934;28;20542;-70
2022/11/23 00:47:50;;;;;;;6.67;1.10;;;3.40;99.90;;;;;;4128771;28;20219;-71
2022/11/23 00:49:51;;;;;;;4.50;1.20;;;3.40;99.90;;;;;;4130204;28;20439;-71
2022/11/23 00:51:51;;;;;;;5.43;0.90;;;3.30;99.90;;;;;;4129230;28;20204;-70
2022/11/23 00:53:53;;;;;;;1.93;0.93;;;3.30;99.90;;;;;;4128521;28;20215;-71
2022/11/23 00:55:56;;;;;;;2.23;1.10;;;3.30;99.90;;;;;;4129301;28;20222;-71
2022/11/23 00:57:57;;;;;;;4.47;1.30;;;3.20;99.90;;;;;;4128966;28;20462;-71
2022/11/23 00:59:58;;;;;;;6.13;1.40;;;3.20;99.90;;;;;;4128739;28;20418;-71
2022/11/23 01:01:58;;;;;;;2.43;1.30;;;3.10;99.90;;;;;;4112285;28;20670;-70
2022/11/23 01:04:01;;;;;;;3.70;1.17;;;3.10;99.90;;;;;;4129200;28;20675;-71
2022/11/23 01:06:11;;;;;;;3.60;1.23;;;3.00;99.90;;;;;;4129637;28;20187;-71
2022/11/23 01:08:12;;;;;;;7.87;1.87;;;2.90;99.90;;;;;;4128223;28;20503;-71
2022/11/23 01:10:13;;;;;;;3.87;1.33;;;2.90;99.90;;;;;;4128511;28;20919;-70
2022/11/23 01:12:14;;;;;;;3.77;1.37;;;2.90;99.90;;;;;;4129619;28;20188;-70
2022/11/23 01:14:16;;;;;;;1.40;0.90;;;2.90;99.90;;;;;;4136032;28;20202;-71
2022/11/23 01:16:28;;;;;;;10.10;1.50;;;2.80;99.90;;;;;;4132596;28;20191;-71
2022/11/23 01:18:29;;;;;;;5.43;1.67;;;2.70;99.90;;;;;;4114107;28;20837;-70
2022/11/23 01:20:30;;;;;;;2.63;1.30;;;2.60;99.90;;;;;;4114011;28;20438;-71
2022/11/23 01:22:30;;;;;;;7.07;1.47;;;2.30;99.90;;;;;;4113918;28;20194;-71
2022/11/23 01:24:31;;;;;;;2.00;1.27;;;2.40;99.90;;;;;;4113408;28;20203;-70
2022/11/23 01:26:32;;;;;;;6.07;1.20;;;2.50;99.90;;;;;;4112436;28;20184;-71
2022/11/23 01:28:33;;;;;;;4.00;1.43;;;2.60;99.90;;;;;;4112446;28;20693;-71
2022/11/23 01:30:35;;;;;;;5.20;1.40;;;2.60;99.90;;;;;;4114351;28;20652;-71
2022/11/23 01:32:35;;;;;;;6.87;2.10;;;2.60;99.90;;;;;;4096437;28;20441;-70
2022/11/23 01:34:36;;;;;;;2.10;1.40;;;2.70;99.90;;;;;;4113948;28;20458;-71
2022/11/23 01:36:37;;;;;;;4.83;1.17;;;2.60;99.90;;;;;;4112771;28;20197;-71
2022/11/23 01:38:39;;;;;;;4.53;1.30;;;2.60;99.90;;;;;;4113945;28;20688;-71
2022/11/23 01:40:41;;;;;;;8.73;2.97;;;2.60;99.90;;;;;;4112153;28;20179;-71
2022/11/23 01:42:59;;;;;;;3.70;2.23;;;2.60;99.90;;;;;;4111628;28;20490;-71
2022/11/23 01:45:35;;;;;;;5.70;1.73;;;2.60;99.90;;;;;;4112657;28;20453;-71
2022/11/23 01:47:36;;;;;;;2.47;1.30;;;2.60;99.90;;;;;;4112155;28;20449;-70
2022/11/23 01:49:40;;;;;;;6.23;1.33;;;2.70;99.90;;;;;;4112433;28;20489;-71
2022/11/23 01:51:45;;;;;;;2.10;1.20;;;2.70;99.90;;;;;;4112278;28;20900;-71
2022/11/23 01:53:51;;;;;;;7.00;1.23;;;2.70;99.90;;;;;;4113050;28;20452;-70
2022/11/23 01:55:57;;;;;;;2.33;1.20;;;2.80;99.90;;;;;;4114860;28;20440;-70
2022/11/23 01:57:58;;;;;;;4.27;1.70;;;2.70;99.90;;;;;;4115348;28;20478;-70
2022/11/23 01:59:59;;;;;;;4.87;1.67;;;2.60;99.90;;;;;;4116756;28;20470;-71
2022/11/23 02:02:00;;;;;;;3.63;1.20;;;2.60;99.90;;;;;;4115290;28;20430;-70
2022/11/23 02:04:02;;;;;;;3.33;1.20;;;2.60;99.90;;;;;;4114858;28;20459;-71
2022/11/23 02:06:10;;;;;;;7.73;1.33;;;2.60;99.90;;;;;;4115428;28;20864;-71
2022/11/23 02:08:14;;;;;;;3.23;1.50;;;2.70;99.90;;;;;;4115537;28;20406;-71
2022/11/23 02:10:15;;;;;;;10.57;1.70;;;2.70;99.90;;;;;;4099418;28;20484;-71
2022/11/23 02:12:16;;;;;;;3.30;1.10;;;2.60;99.90;;;;;;4115270;28;20430;-71
2022/11/23 02:14:17;;;;;;;4.20;1.30;;;2.50;99.90;;;;;;4114425;28;20548;-71
2022/11/23 02:16:18;;;;;;;11.43;1.60;;;2.40;99.90;;;;;;4115403;28;20185;-71
2022/11/23 02:18:22;;;;;;;5.53;1.63;;;2.30;99.90;;;;;;4099032;29;20791;-71
2022/11/23 02:20:23;;;;;;;7.20;1.77;;;2.20;99.90;;;;;;4115330;28;20179;-70
2022/11/23 02:23:08;;;;;;;2.00;1.40;;;2.10;99.90;;;;;;4115213;28;20708;-71
2022/11/23 02:25:21;;;;;;;7.00;1.27;;;2.00;99.90;;;;;;4116081;28;20213;-70
2022/11/23 02:27:22;;;;;;;3.60;1.30;;;1.90;99.90;;;;;;4114758;28;20422;-70
2022/11/23 02:29:25;;;;;;;3.73;1.23;;;1.90;99.90;;;;;;4114727;28;20432;-71
2022/11/23 02:31:26;;;;;;;2.83;1.23;;;1.90;99.90;;;;;;4114918;28;20652;-71
2022/11/23 02:33:27;;;;;;;3.90;1.20;;;1.90;99.90;;;;;;4115433;28;20426;-71
2022/11/23 02:35:28;;;;;;;3.17;1.50;;;2.00;99.90;;;;;;4115031;28;20570;-71
2022/11/23 02:37:28;;;;;;;3.30;1.20;;;2.00;99.90;;;;;;4116131;28;20481;-71
2022/11/23 02:39:36;;;;;;;3.77;1.57;;;2.10;99.90;;;;;;4114845;28;20172;-71
2022/11/23 02:41:52;;;;;;;6.00;1.23;;;2.10;99.90;;;;;;4115021;28;20691;-71
2022/11/23 02:43:56;;;;;;;3.03;1.50;;;2.20;99.90;;;;;;4114134;28;21065;-71
2022/11/23 02:46:01;;;;;;;6.37;1.60;;;2.30;99.90;;;;;;4114906;28;20447;-71
2022/11/23 02:48:01;;;;;;;7.73;2.40;;;2.30;99.90;;;;;;4114813;28;20466;-70
2022/11/23 02:50:02;;;;;;;5.03;1.30;;;2.30;99.90;;;;;;4115912;28;20421;-71
2022/11/23 02:52:03;;;;;;;4.47;1.40;;;2.40;99.90;;;;;;4115959;28;20191;-71
2022/11/23 02:54:04;;;;;;;5.43;1.50;;;2.40;99.90;;;;;;4124977;28;20204;-72
2022/11/23 02:56:05;;;;;;;6.20;1.13;;;2.50;99.90;;;;;;4130754;28;21036;-72
2022/11/23 02:58:06;;;;;;;3.87;1.20;;;2.50;99.90;;;;;;4131997;28;20223;-72
2022/11/23 03:00:08;;;;;;;5.10;1.40;;;2.50;99.90;;;;;;4131790;28;20186;-72
2022/11/23 03:02:08;;;;;;;2.97;1.37;;;2.50;99.90;;;;;;4131676;28;20442;-72
2022/11/23 03:04:09;;;;;;;1.60;1.13;;;2.30;99.90;;;;;;4131391;28;20474;-72
2022/11/23 03:06:10;;;;;;;5.23;1.30;;;2.20;99.90;;;;;;4113464;28;20187;-72
2022/11/23 03:08:11;;;;;;;2.50;1.03;;;2.10;99.90;;;;;;4130179;28;20187;-71
2022/11/23 03:10:12;;;;;;;4.80;1.40;;;2.20;99.90;;;;;;4131945;28;20191;-72
2022/11/23 03:12:12;;;;;;;4.83;1.40;;;2.10;99.90;;;;;;4114357;28;20669;-72
2022/11/23 03:14:13;;;;;;;3.20;1.43;;;2.00;99.90;;;;;;4129712;28;20453;-72
2022/11/23 03:16:15;;;;;;;3.17;1.20;;;1.90;99.90;;;;;;4130463;28;20226;-72
2022/11/23 03:18:16;;;;;;;3.33;1.20;;;1.80;99.90;;;;;;4133607;28;20206;-72
2022/11/23 03:20:17;;;;;;;8.53;1.60;;;1.80;99.90;;;;;;4135809;28;20509;-71
2022/11/23 03:22:17;;;;;;;2.40;1.30;;;1.80;99.90;;;;;;4118116;28;20278;-72
2022/11/23 03:24:18;;;;;;;4.47;1.20;;;1.60;99.90;;;;;;4114230;28;20446;-72
2022/11/23 03:26:19;;;;;;;5.13;1.30;;;1.40;99.90;;;;;;4114892;28;20196;-71
2022/11/23 03:28:19;;;;;;;2.97;1.10;;;1.40;99.90;;;;;;4117527;28;20547;-71
2022/11/23 03:30:20;;;;;;;5.20;1.80;;;1.50;99.90;;;;;;4130155;28;20296;-70
2022/11/23 03:32:21;;;;;;;2.57;1.10;;;1.50;99.90;;;;;;4130120;28;20188;-71
2022/11/23 03:34:22;;;;;;;4.57;1.70;;;1.60;99.90;;;;;;4130818;28;20202;-71
2022/11/23 03:36:23;;;;;;;4.00;1.43;;;1.50;99.90;;;;;;4130198;28;20194;-72
2022/11/23 03:38:24;;;;;;;7.60;1.60;;;1.50;99.90;;;;;;4129903;28;20472;-71
2022/11/23 03:40:24;;;;;;;3.67;1.60;;;1.50;99.90;;;;;;4130136;28;20233;-71
2022/11/23 03:42:25;;;;;;;2.07;1.20;;;1.40;99.90;;;;;;4113675;28;20191;-70
2022/11/23 03:44:25;;;;;;;1.60;1.23;;;1.40;99.90;;;;;;4143938;28;20214;-71
2022/11/23 03:46:26;;;;;;;7.00;2.00;;;1.30;99.90;;;;;;4130940;28;20178;-70
2022/11/23 03:48:27;;;;;;;6.53;1.60;;;1.20;99.90;;;;;;4130220;28;20270;-70
2022/11/23 03:50:28;;;;;;;5.87;1.80;;;1.20;99.90;;;;;;4129996;28;20183;-70
2022/11/23 03:52:29;;;;;;;4.87;1.60;;;1.30;99.90;;;;;;4129816;28;20285;-71
2022/11/23 03:54:29;;;;;;;9.80;1.53;;;1.30;99.90;;;;;;4130357;28;21057;-70
2022/11/23 03:56:30;;;;;;;5.10;1.60;;;1.50;99.90;;;;;;4131175;28;20971;-70
2022/11/23 03:58:31;;;;;;;5.07;1.30;;;1.60;99.90;;;;;;4130955;28;20746;-70
2022/11/23 04:00:32;;;;;;;6.50;1.43;;;1.70;99.90;;;;;;4129929;28;20559;-71
2022/11/23 04:02:32;;;;;;;7.97;1.43;;;1.70;99.90;;;;;;4130731;28;20190;-71
2022/11/23 04:04:34;;;;;;;6.97;1.50;;;1.70;99.90;;;;;;4130667;28;20354;-71
2022/11/23 04:06:35;;;;;;;2.87;1.53;;;1.60;99.90;;;;;;4129655;28;20265;-70
2022/11/23 04:08:36;;;;;;;9.97;1.83;;;1.50;99.90;;;;;;4129700;28;20453;-71
2022/11/23 04:10:36;;;;;;;6.17;1.73;;;1.30;99.90;;;;;;4130932;28;20182;-73
2022/11/23 04:12:37;;;;;;;5.60;1.70;;;1.20;99.90;;;;;;4129391;28;20190;-71
2022/11/23 04:14:38;;;;;;;2.83;1.40;;;1.20;99.90;;;;;;4129423;28;20198;-70
2022/11/23 04:16:38;;;;;;;5.17;2.20;;;1.00;99.90;;;;;;4129739;28;20194;-70
2022/11/23 04:18:39;;;;;;;4.70;1.60;;;1.10;99.90;;;;;;4130161;28;20216;-71
2022/11/23 04:20:40;;;;;;;2.43;1.53;;;1.10;99.90;;;;;;4129462;28;20658;-70
2022/11/23 04:22:41;;;;;;;6.40;1.53;;;1.00;99.90;;;;;;4129735;28;20179;-70
2022/11/23 04:24:41;;;;;;;3.60;1.40;;;1.00;99.90;;;;;;4130657;28;20289;-71
2022/11/23 04:26:42;;;;;;;2.47;1.30;;;0.90;99.90;;;;;;4129108;28;20178;-71
2022/11/23 04:28:43;;;;;;;9.10;1.93;;;0.90;99.90;;;;;;4128897;28;20328;-70
2022/11/23 04:30:43;;;;;;;2.80;1.30;;;0.80;99.90;;;;;;4130244;28;20187;-71
2022/11/23 04:32:44;;;;;;;7.00;1.60;;;0.80;99.90;;;;;;4128527;28;20210;-70
2022/11/23 04:34:45;;;;;;;7.17;1.93;;;0.80;99.90;;;;;;4129356;28;20730;-71
2022/11/23 04:36:46;;;;;;;2.90;1.50;;;0.80;99.90;;;;;;4129119;28;20524;-71
2022/11/23 04:38:46;;;;;;;8.97;1.80;;;0.80;99.90;;;;;;4129089;28;20725;-71
2022/11/23 04:40:48;;;;;;;7.73;2.00;;;0.70;99.90;;;;;;4130335;28;20186;-70
2022/11/23 04:42:48;;;;;;;3.90;1.70;;;0.70;99.90;;;;;;4129446;28;20720;-71
2022/11/23 04:44:49;;;;;;;5.77;2.67;;;0.60;99.90;;;;;;4129017;28;20477;-70
2022/11/23 04:46:50;;;;;;;12.53;6.83;;;0.60;99.90;;;;;;4128764;28;20182;-70
2022/11/23 04:48:50;;;;;;;19.13;10.10;;;0.40;99.90;;;;;;4128456;28;20194;-71
2022/11/23 04:50:51;;;;;;;7.40;5.17;;;0.50;99.90;;;;;;4128721;28;20177;-70
2022/11/23 04:52:52;;;;;;;9.27;4.10;;;0.40;99.90;;;;;;4128333;28;20190;-71
2022/11/23 04:54:52;;;;;;;9.50;4.13;;;0.50;99.90;;;;;;4113031;28;20587;-70
2022/11/23 04:56:53;;;;;;;7.80;3.20;;;0.30;99.90;;;;;;4129944;28;20749;-70
2022/11/23 04:58:54;;;;;;;12.87;5.77;;;0.40;99.90;;;;;;4128858;28;20182;-71
2022/11/23 05:00:57;;;;;;;9.03;4.90;;;0.40;99.90;;;;;;4128584;28;20737;-70
2022/11/23 05:02:59;;;;;;;9.43;4.27;;;0.40;99.90;;;;;;4127843;28;20198;-71
2022/11/23 05:05:00;;;;;;;8.40;4.20;;;0.40;99.90;;;;;;4128565;28;20469;-71
2022/11/23 05:07:01;;;;;;;6.03;3.47;;;0.40;99.90;;;;;;4128450;28;20858;-70
2022/11/23 05:09:02;;;;;;;7.67;2.93;;;0.40;99.90;;;;;;4130136;28;20201;-71
2022/11/23 05:11:02;;;;;;;7.70;2.87;;;0.40;99.90;;;;;;4130240;28;20202;-73
2022/11/23 05:13:03;;;;;;;6.37;2.77;;;0.40;99.90;;;;;;4112149;28;20225;-71
2022/11/23 05:15:05;;;;;;;7.17;2.87;;;0.40;99.90;;;;;;4129071;28;20198;-71
2022/11/23 05:17:06;;;;;;;6.37;2.50;;;0.40;99.90;;;;;;4130445;28;20429;-71
2022/11/23 05:19:07;;;;;;;4.10;2.37;;;0.30;99.90;;;;;;4130500;28;20836;-70
2022/11/23 05:21:08;;;;;;;10.33;2.43;;;0.40;99.90;;;;;;4131178;28;20182;-70
2022/11/23 05:23:09;;;;;;;7.27;2.70;;;0.40;99.90;;;;;;4129525;28;20417;-71
2022/11/23 05:25:10;;;;;;;8.77;2.57;;;0.40;99.90;;;;;;4123753;28;20568;-71
2022/11/23 05:27:11;;;;;;;4.37;2.30;;;0.40;99.90;;;;;;4117243;28;20429;-71
2022/11/23 05:29:11;;;;;;;4.70;2.40;;;0.30;99.90;;;;;;4097237;28;20684;-70
2022/11/23 05:31:12;;;;;;;9.67;2.97;;;0.20;99.90;;;;;;4117185;28;20183;-70
2022/11/23 05:33:13;;;;;;;9.50;3.47;;;0.30;99.90;;;;;;4115468;28;20285;-70
2022/11/23 05:35:14;;;;;;;11.53;3.97;;;0.20;99.90;;;;;;4115458;28;20203;-70
2022/11/23 05:37:15;;;;;;;8.37;4.23;;;0.20;99.90;;;;;;4115575;28;20684;-70
2022/11/23 05:39:15;;;;;;;9.80;4.07;;;0.10;99.90;;;;;;4131864;28;20190;-70
2022/11/23 05:41:16;;;;;;;8.87;3.10;;;0.10;99.90;;;;;;4131110;28;20229;-71
2022/11/23 05:43:17;;;;;;;8.03;3.60;;;0.10;99.90;;;;;;4131919;28;20191;-71
2022/11/23 05:45:17;;;;;;;7.97;3.77;;;-0.10;99.90;;;;;;4131436;28;20920;-70
2022/11/23 05:47:18;;;;;;;12.03;4.23;;;0.00;99.90;;;;;;4132449;28;20194;-70
2022/11/23 05:49:19;;;;;;;8.63;4.10;;;0.00;99.90;;;;;;4132458;28;20209;-71
2022/11/23 05:51:19;;;;;;;9.07;3.23;;;-0.10;99.90;;;;;;4132228;28;20186;-71
2022/11/23 05:53:20;;;;;;;6.33;2.30;;;-0.10;99.90;;;;;;4131699;28;20190;-70
2022/11/23 05:55:21;;;;;;;7.97;2.47;;;-0.10;99.90;;;;;;4131296;28;20676;-70
2022/11/23 05:57:22;;;;;;;5.07;2.00;;;-0.20;99.90;;;;;;4114855;28;20762;-71
2022/11/23 05:59:22;;;;;;;8.47;1.67;;;-0.20;99.90;;;;;;4132311;28;20640;-70
2022/11/23 06:01:23;;;;;;;2.80;1.70;;;-0.20;99.90;;;;;;4132167;28;20248;-70
2022/11/23 06:03:24;;;;;;;5.37;2.00;;;-0.20;99.90;;;;;;4130213;28;20205;-70
2022/11/23 06:05:25;;;;;;;3.77;1.83;;;-0.20;99.90;;;;;;4132072;28;20194;-70
2022/11/23 06:07:25;;;;;;;5.20;2.10;;;-0.30;99.90;;;;;;4131975;28;20479;-70
2022/11/23 06:09:27;;;;;;;5.60;1.97;;;-0.30;99.90;;;;;;4132120;28;20273;-71
2022/11/23 06:11:29;;;;;;;5.63;1.47;;;-0.30;99.90;;;;;;4130882;28;20186;-71
2022/11/23 06:13:30;;;;;;;7.63;2.10;;;-0.30;99.90;;;;;;4113937;28;20437;-71
2022/11/23 06:15:31;;;;;;;10.37;2.57;;;-0.30;99.90;;;;;;4130906;28;20431;-70
2022/11/23 06:17:32;;;;;;;4.93;2.20;;;-0.30;99.90;;;;;;4132956;28;20249;-70
2022/11/23 06:19:32;;;;;;;11.70;2.73;;;-0.30;99.90;;;;;;4130564;28;20182;-70
2022/11/23 06:21:33;;;;;;;9.17;3.10;;;-0.30;99.90;;;;;;4130623;28;20225;-70
2022/11/23 06:23:34;;;;;;;8.10;3.50;;;-0.30;99.90;;;;;;4129896;28;20532;-71
2022/11/23 06:25:37;;;;;;;7.67;4.53;;;-0.20;99.90;;;;;;4131043;28;20202;-70
2022/11/23 06:27:38;;;;;;;10.90;4.20;;;-0.20;99.90;;;;;;4130636;28;20710;-70
2022/11/23 06:29:39;;;;;;;7.80;3.63;;;-0.20;99.90;;;;;;4130739;28;20420;-70
2022/11/23 06:31:39;;;;;;;15.30;3.10;;;-0.20;99.90;;;;;;4130580;28;20425;-70
2022/11/23 06:33:40;;;;;;;6.03;3.00;;;-0.20;99.90;;;;;;4131189;28;20185;-70
2022/11/23 06:35:41;;;;;;;5.27;2.77;;;-0.20;99.90;;;;;;4114598;28;20190;-70
2022/11/23 06:37:42;;;;;;;6.67;3.07;;;-0.20;99.90;;;;;;4130660;28;20236;-71
2022/11/23 06:39:43;;;;;;;8.93;3.43;;;-0.30;99.90;;;;;;4114385;28;20182;-70
2022/11/23 06:41:43;;;;;;;8.47;3.30;;;-0.20;99.90;;;;;;4131512;28;20425;-69
2022/11/23 06:43:46;;;;;;;12.13;4.63;;;-0.30;99.90;;;;;;4129707;28;20188;-70
2022/11/23 06:45:47;;;;;;;54.63;24.70;;;-0.40;99.90;;;;;;4130128;28;20229;-70
2022/11/23 06:47:47;;;;;;;50.33;20.13;;;-0.60;99.90;;;;;;4131479;28;20430;-70
2022/11/23 06:49:48;;;;;;;40.17;18.53;;;-0.50;99.90;;;;;;4130271;28;20224;-71
2022/11/23 06:51:48;;;;;;;16.30;9.23;;;-0.40;99.90;;;;;;4114316;28;20269;-70
2022/11/23 06:53:49;;;;;;;22.60;9.77;;;-0.50;99.90;;;;;;4130679;28;20202;-70
2022/11/23 06:55:50;;;;;;;20.53;10.43;;;-0.40;99.90;;;;;;4131144;28;20229;-70
2022/11/23 06:57:51;;;;;;;16.03;9.33;;;-0.50;99.90;;;;;;4131392;28;20205;-70
2022/11/23 06:59:51;;;;;;;17.37;8.13;;;-0.50;99.90;;;;;;4114043;28;20567;-69
2022/11/23 07:01:52;;;;;;;20.17;10.63;;;-0.50;99.90;;;;;;4131291;28;20236;-70
2022/11/23 07:03:53;;;;;;;30.47;11.77;;;-0.50;99.90;;;;;;4130628;28;20244;-72
2022/11/23 07:05:54;;;;;;;23.43;10.53;;;-0.50;99.90;;;;;;4114047;28;20274;-70
2022/11/23 07:07:55;;;;;;;24.03;10.10;;;-0.50;99.90;;;;;;4113995;28;20209;-70
2022/11/23 07:09:56;;;;;;;34.13;15.67;;;-0.50;99.90;;;;;;4131263;28;20433;-70
2022/11/23 07:11:57;;;;;;;66.77;29.73;;;-0.50;99.90;;;;;;4131134;28;20431;-70
2022/11/23 07:13:57;;;;;;;58.07;27.77;;;-0.50;99.90;;;;;;4129205;28;20830;-70
2022/11/23 07:15:58;;;;;;;53.50;24.40;;;-0.40;99.90;;;;;;4113748;28;20190;-70
2022/11/23 07:17:59;;;;;;;44.20;22.60;;;-0.40;99.90;;;;;;4130943;28;20218;-70
2022/11/23 07:19:59;;;;;;;44.47;22.03;;;-0.40;99.90;;;;;;4129973;28;20736;-70
2022/11/23 07:22:00;;;;;;;25.83;14.53;;;-0.30;99.90;;;;;;4130859;28;20178;-70
2022/11/23 07:24:01;;;;;;;23.13;11.70;;;-0.50;99.90;;;;;;4129275;28;20340;-70
2022/11/23 07:26:02;;;;;;;23.43;10.50;;;-0.40;99.90;;;;;;4131044;28;20214;-71
2022/11/23 07:28:05;;;;;;;20.90;9.63;;;-0.40;99.90;;;;;;4131625;28;20178;-70
2022/11/23 07:30:07;;;;;;;28.63;12.30;;;-0.40;99.90;;;;;;4143934;28;20174;-70
2022/11/23 07:32:07;;;;;;;30.70;14.87;;;-0.30;99.90;;;;;;4131252;28;20433;-70
2022/11/23 07:34:09;;;;;;;29.67;15.37;;;-0.30;99.90;;;;;;4114553;28;20485;-71
2022/11/23 07:36:11;;;;;;;26.50;13.43;;;-0.30;99.90;;;;;;4115207;28;20270;-70
2022/11/23 07:38:11;;;;;;;31.77;14.80;;;-0.30;99.90;;;;;;4129439;28;20469;-70
2022/11/23 07:40:13;;;;;;;40.00;17.07;;;-0.20;99.90;;;;;;4113576;28;20429;-70
2022/11/23 07:42:13;;;;;;;34.47;15.33;;;-0.20;99.90;;;;;;4113601;28;20535;-70
2022/11/23 07:44:14;;;;;;;28.50;13.80;;;-0.20;99.90;;;;;;4112629;28;20501;-70
2022/11/23 07:46:15;;;;;;;29.00;12.63;;;-0.10;99.90;;;;;;4113490;28;20175;-71
2022/11/23 07:48:15;;;;;;;29.37;12.23;;;-0.20;99.90;;;;;;4113479;28;20648;-70
2022/11/23 07:50:16;;;;;;;24.10;11.57;;;-0.10;99.90;;;;;;4114614;28;20678;-70
2022/11/23 07:52:17;;;;;;;29.13;13.27;;;-0.20;99.90;;;;;;4128945;28;20192;-70
2022/11/23 07:54:17;;;;;;;20.77;10.37;;;-0.10;99.90;;;;;;4113844;28;20213;-70
2022/11/23 07:56:18;;;;;;;27.17;10.83;;;-0.10;99.90;;;;;;4129396;28;20186;-70
2022/11/23 07:58:19;;;;;;;24.27;11.87;;;-0.10;99.90;;;;;;4113129;28;20306;-70
2022/11/23 08:00:21;;;;;;;21.57;10.70;;;0.00;99.90;;;;;;4129184;28;20174;-70
2022/11/23 08:02:22;;;;;;;19.77;9.30;;;0.10;99.90;;;;;;4129074;28;20292;-70
2022/11/23 08:04:22;;;;;;;20.43;9.07;;;0.10;99.90;;;;;;4113877;28;21068;-70
2022/11/23 08:06:23;;;;;;;22.93;9.77;;;0.20;99.90;;;;;;4114186;28;20210;-70
2022/11/23 08:08:24;;;;;;;17.63;9.73;;;0.20;99.90;;;;;;4112777;28;20233;-70
2022/11/23 08:10:30;;;;;;;18.33;9.47;;;0.40;99.90;;;;;;4128827;28;20202;-70
2022/11/23 08:12:31;;;;;;;16.17;8.00;;;0.40;99.90;;;;;;4128939;28;20552;-70
2022/11/23 08:14:32;;;;;;;18.03;9.47;;;0.50;99.90;;;;;;4113402;28;20438;-69
2022/11/23 08:16:32;;;;;;;20.43;9.90;;;0.50;99.90;;;;;;4128798;28;20194;-72
2022/11/23 08:18:33;;;;;;;22.47;10.33;;;0.70;99.90;;;;;;4113864;28;20576;-70
2022/11/23 08:20:34;;;;;;;17.40;8.53;;;0.80;99.90;;;;;;4114025;28;20640;-70
2022/11/23 08:22:34;;;;;;;20.60;10.17;;;0.80;99.90;;;;;;4113586;28;20262;-70
2022/11/23 08:24:35;;;;;;;19.87;10.13;;;0.90;99.90;;;;;;4128925;28;20203;-70
2022/11/23 08:26:36;;;;;;;19.83;9.70;;;1.00;99.90;;;;;;4113843;28;20210;-70
2022/11/23 08:28:38;;;;;;;24.27;11.00;;;1.00;99.90;;;;;;4112763;28;20191;-70
2022/11/23 08:30:39;;;;;;;19.03;9.60;;;1.00;99.90;;;;;;4128794;28;20500;-70
2022/11/23 08:32:40;;;;;;;12.93;7.73;;;1.00;99.90;;;;;;4113343;28;20434;-70
2022/11/23 08:34:43;;;;;;;11.70;7.53;;;0.90;99.90;;;;;;4113734;28;20207;-69
2022/11/23 08:36:44;;;;;;;9.93;6.57;;;0.90;99.90;;;;;;4128541;28;20236;-70
2022/11/23 08:38:45;;;;;;;12.33;5.67;;;1.00;99.90;;;;;;4113854;28;20561;-70
2022/11/23 08:40:45;;;;;;;7.57;4.60;;;1.00;99.90;;;;;;4128639;28;20933;-70
2022/11/23 08:42:46;;;;;;;6.07;4.03;;;1.00;99.90;;;;;;4127778;28;20264;-70
2022/11/23 08:44:47;;;;;;;9.00;4.43;;;1.10;99.90;;;;;;4128235;28;20758;-70
2022/11/23 08:46:48;;;;;;;6.03;4.33;;;1.20;99.90;;;;;;4128439;28;20194;-71
2022/11/23 08:48:48;;;;;;;7.93;5.00;;;1.40;99.90;;;;;;4112354;28;20187;-70
2022/11/23 08:50:49;;;;;;;7.40;4.07;;;1.50;99.90;;;;;;4128282;28;20192;-70
2022/11/23 08:52:58;;;;;;;6.40;4.20;;;1.60;99.90;;;;;;4127794;28;20209;-70
2022/11/23 08:55:00;;;;;;;6.63;3.77;;;1.90;99.90;;;;;;4128751;28;20259;-70
2022/11/23 08:57:00;;;;;;;9.70;4.23;;;2.10;99.90;;;;;;4128269;28;20443;-70
2022/11/23 08:59:01;;;;;;;6.73;3.10;;;2.20;99.90;;;;;;4129457;28;20442;-69
2022/11/23 09:01:11;;;;;;;3.03;2.70;;;2.40;99.90;;;;;;4129574;28;20184;-71
2022/11/23 09:03:11;;;;;;;4.67;2.87;;;2.40;99.90;;;;;;4127782;28;20196;-71
2022/11/23 09:05:12;;;;;;;4.00;2.30;;;2.60;99.90;;;;;;4131202;28;20502;-69
2022/11/23 09:07:13;;;;;;;6.50;2.30;;;2.90;99.90;;;;;;4133086;28;20188;-69
2022/11/23 09:09:14;;;;;;;3.73;1.87;;;3.10;99.90;;;;;;4131742;28;20740;-69
2022/11/23 09:11:15;;;;;;;3.13;2.23;;;3.30;99.90;;;;;;4114286;28;20184;-69
2022/11/23 09:13:16;;;;;;;8.70;2.50;;;3.50;99.90;;;;;;4145735;28;20266;-69
2022/11/23 09:15:17;;;;;;;6.03;2.00;;;3.40;99.90;;;;;;4131567;28;20533;-69
2022/11/23 09:17:18;;;;;;;3.43;1.80;;;3.50;99.90;;;;;;4130222;28;20197;-69
2022/11/23 09:19:19;;;;;;;3.93;2.00;;;3.50;99.90;;;;;;4130249;28;21110;-69
2022/11/23 09:21:20;;;;;;;4.93;2.20;;;3.40;99.90;;;;;;4113895;28;20265;-68
2022/11/23 09:23:21;;;;;;;3.60;2.10;;;3.40;99.90;;;;;;4129428;28;20433;-68
2022/11/23 09:25:22;;;;;;;2.73;1.87;;;3.30;99.90;;;;;;4130382;28;20662;-67
2022/11/23 09:27:23;;;;;;;2.90;2.37;;;3.30;99.90;;;;;;4131473;28;20182;-68
2022/11/23 09:29:24;;;;;;;3.87;2.53;;;3.30;99.90;;;;;;4132698;28;20822;-69
2022/11/23 09:31:27;;;;;;;3.00;1.87;;;3.60;99.90;;;;;;4132597;28;20182;-69
2022/11/23 09:33:28;;;;;;;2.43;2.07;;;4.00;99.90;;;;;;4119607;28;20210;-69
2022/11/23 09:35:29;;;;;;;2.17;1.77;;;4.10;99.90;;;;;;4141215;28;20551;-69
2022/11/23 09:37:29;;;;;;;2.17;1.60;;;4.30;99.90;;;;;;4120992;28;20757;-69
2022/11/23 09:39:30;;;;;;;3.77;2.33;;;4.70;99.90;;;;;;4131704;28;20229;-68
2022/11/23 09:42:06;;;;;;;2.43;1.87;;;4.70;99.90;;;;;;4115540;28;20185;-69
2022/11/23 09:44:23;;;;;;;3.23;2.23;;;4.70;99.90;;;;;;4130678;28;20209;-69
2022/11/23 09:47:02;;;;;;;3.13;1.97;;;4.90;99.90;;;;;;4116301;28;20261;-69
2022/11/23 09:49:15;;;;;;;3.90;2.00;;;4.90;99.90;;;;;;4131334;28;20679;-69
2022/11/23 09:51:19;;;;;;;4.57;2.50;;;4.70;99.90;;;;;;4115261;28;20179;-69
2022/11/23 09:53:40;;;;;;;4.77;2.70;;;4.50;99.90;;;;;;4114485;28;20679;-69
2022/11/23 09:55:47;;;;;;;3.87;2.50;;;4.70;99.90;;;;;;4131404;28;20217;-68
2022/11/23 09:57:54;;;;;;;2.60;2.20;;;4.80;99.90;;;;;;4130979;28;20352;-69
2022/11/23 10:00:11;;;;;;;4.27;2.70;;;4.80;99.90;;;;;;4131054;28;20178;-69
2022/11/23 10:02:25;;;;;;;4.73;3.40;;;5.10;99.90;;;;;;4130975;28;20232;-69
2022/11/23 10:04:34;;;;;;;3.63;2.63;;;5.40;99.00;;;;;;4115852;28;20273;-70
2022/11/23 10:06:39;;;;;;;4.40;3.23;;;5.40;98.70;;;;;;4116002;28;20193;-69
2022/11/23 10:09:15;;;;;;;4.03;2.70;;;5.30;98.90;;;;;;4116316;28;20187;-69
2022/11/23 10:11:43;;;;;;;6.53;2.97;;;5.40;98.70;;;;;;4130878;28;20225;-69
2022/11/23 10:14:31;;;;;;;4.33;2.80;;;5.20;99.80;;;;;;4115173;28;20257;-69
2022/11/23 10:16:57;;;;;;;5.57;3.30;;;5.30;99.30;;;;;;4097130;28;20209;-68
2022/11/23 10:19:35;;;;;;;4.17;3.10;;;5.80;98.30;;;;;;4113782;28;20640;-69
2022/11/23 10:21:57;;;;;;;5.93;2.23;;;6.00;96.10;;;;;;4105812;28;20242;-69
2022/11/23 10:24:13;;;;;;;5.60;2.57;;;6.60;95.80;;;;;;4129794;28;20206;-69
2022/11/23 10:26:18;;;;;;;4.03;2.57;;;7.00;94.80;;;;;;4130596;28;20661;-69
2022/11/23 10:28:21;;;;;;;3.37;2.10;;;7.20;92.40;;;;;;4130493;28;20190;-68
2022/11/23 10:30:22;;;;;;;1.53;1.20;;;7.40;92.40;;;;;;4130430;28;20277;-69
2022/11/23 10:32:47;;;;;;;2.83;2.37;;;7.90;89.60;;;;;;4130292;28;20182;-67
2022/11/23 10:35:18;;;;;;;6.07;1.90;;;7.40;89.30;;;;;;4130439;28;20229;-68
2022/11/23 10:37:19;;;;;;;2.77;1.53;;;6.80;91.70;;;;;;4113701;28;20286;-68
2022/11/23 10:39:24;;;;;;;2.10;1.47;;;6.30;92.80;;;;;;4130195;28;20186;-68
2022/11/23 10:41:25;;;;;;;3.53;1.50;;;6.00;94.10;;;;;;4130384;28;20264;-68
2022/11/23 10:43:33;;;;;;;6.50;2.30;;;6.30;93.90;;;;;;4130727;28;20194;-68